createdAt,value
2022-08-26T00:01:52.904Z,5.82
2022-08-26T00:04:22.275Z,5.85
2022-08-26T00:06:49.555Z,4.93
2022-08-26T00:09:16.983Z,7.30
2022-08-26T00:11:44.718Z,7.72
2022-08-26T00:14:13.095Z,7.60
2022-08-26T00:16:47.606Z,9.02
2022-08-26T00:19:16.614Z,10.98
2022-08-26T00:21:44.185Z,6.47
2022-08-26T00:24:11.425Z,6.90
2022-08-26T00:26:38.980Z,5.53
2022-08-26T00:29:09.364Z,6.75
2022-08-26T00:31:36.818Z,6.57
2022-08-26T00:34:06.338Z,7.15
2022-08-26T00:36:33.707Z,14.93
2022-08-26T00:39:00.865Z,13.63
2022-08-26T00:41:29.659Z,16.63
2022-08-26T00:43:57.434Z,15.25
2022-08-26T00:46:28.433Z,13.98
2022-08-26T00:49:02.989Z,13.60
2022-08-26T00:51:38.297Z,13.43
2022-08-26T00:54:10.682Z,16.08
2022-08-26T00:56:43.774Z,15.43
2022-08-26T00:59:17.180Z,15.25
2022-08-26T01:01:46.020Z,15.40
2022-08-26T01:04:19.386Z,13.75
2022-08-26T01:06:50.488Z,8.55
2022-08-26T01:09:19.226Z,8.63
2022-08-26T01:11:49.022Z,9.18
2022-08-26T01:14:20.165Z,8.98
2022-08-26T01:16:48.453Z,8.55
2022-08-26T01:19:20.838Z,8.55
2022-08-26T01:21:56.437Z,10.13
2022-08-26T01:24:28.760Z,8.95
2022-08-26T01:26:57.867Z,8.90
2022-08-26T01:29:25.506Z,7.75
2022-08-26T01:31:55.442Z,7.45
2022-08-26T01:34:26.081Z,9.25
2022-08-26T01:36:59.298Z,8.77
2022-08-26T01:39:28.961Z,10.45
2022-08-26T01:41:57.678Z,7.13
2022-08-26T01:44:34.702Z,8.65
2022-08-26T01:47:02.660Z,7.80
2022-08-26T01:49:35.311Z,6.82
2022-08-26T01:52:05.370Z,8.35
2022-08-26T01:54:36.077Z,12.30
2022-08-26T01:57:04.274Z,19.23
2022-08-26T01:59:31.640Z,16.17
2022-08-26T02:01:59.356Z,15.45
2022-08-26T02:04:31.184Z,10.68
2022-08-26T02:09:26.962Z,12.95
2022-08-26T02:11:55.667Z,12.88
2022-08-26T02:14:30.472Z,11.98
2022-08-26T02:16:58.207Z,13.25
2022-08-26T02:19:29.448Z,12.57
2022-08-26T02:22:00.634Z,10.48
2022-08-26T02:24:44.639Z,12.82
2022-08-26T02:27:13.462Z,14.25
2022-08-26T02:29:45.754Z,10.07
2022-08-26T02:32:13.559Z,11.55
2022-08-26T02:34:46.633Z,9.52
2022-08-26T02:37:14.102Z,11.35
2022-08-26T02:39:42.909Z,10.85
2022-08-26T02:42:10.785Z,12.27
2022-08-26T02:44:39.522Z,11.68
2022-08-26T02:47:07.915Z,11.38
2022-08-26T02:49:37.718Z,9.73
2022-08-26T02:52:05.030Z,9.68
2022-08-26T02:54:32.835Z,9.52
2022-08-26T02:57:01.276Z,13.10
2022-08-26T02:59:29.217Z,10.43
2022-08-26T03:01:58.607Z,10.02
2022-08-26T03:04:26.277Z,10.45
2022-08-26T03:06:53.784Z,12.75
2022-08-26T03:09:23.365Z,11.50
2022-08-26T03:11:50.979Z,12.73
2022-08-26T03:14:18.224Z,14.32
2022-08-26T03:16:48.468Z,13.40
2022-08-26T03:19:18.040Z,13.38
2022-08-26T03:21:47.439Z,13.90
2022-08-26T03:24:15.423Z,12.05
2022-08-26T03:26:52.361Z,33.10
2022-08-26T03:29:20.503Z,13.77
2022-08-26T03:31:48.104Z,13.20
2022-08-26T03:34:15.590Z,13.35
2022-08-26T03:36:44.830Z,12.18
2022-08-26T03:39:14.109Z,15.57
2022-08-26T03:41:42.097Z,15.48
2022-08-26T03:44:09.533Z,14.75
2022-08-26T03:46:38.597Z,18.02
2022-08-26T03:49:06.495Z,15.32
2022-08-26T03:51:35.865Z,15.23
2022-08-26T03:54:08.461Z,17.23
2022-08-26T03:56:36.102Z,17.83
2022-08-26T03:59:04.229Z,15.88
2022-08-26T04:01:32.527Z,17.30
2022-08-26T04:04:00.325Z,16.55
2022-08-26T04:06:30.616Z,17.38
2022-08-26T04:09:00.353Z,15.80
2022-08-26T04:11:31.066Z,17.23
2022-08-26T04:14:06.903Z,16.55
2022-08-26T04:16:35.361Z,15.73
2022-08-26T04:19:03.553Z,15.80
2022-08-26T04:21:30.787Z,15.00
2022-08-26T04:23:58.218Z,17.42
2022-08-26T04:26:26.162Z,15.68
2022-08-26T04:28:55.465Z,19.60
2022-08-26T04:31:22.847Z,18.50
2022-08-26T04:33:51.159Z,18.35
2022-08-26T04:36:19.851Z,16.23
2022-08-26T04:38:47.889Z,16.70
2022-08-26T04:41:17.228Z,19.38
2022-08-26T04:43:45.482Z,17.55
2022-08-26T04:46:18.541Z,18.10
2022-08-26T04:48:46.673Z,18.02
2022-08-26T04:51:13.875Z,19.48
2022-08-26T04:53:41.181Z,19.67
2022-08-26T04:56:09.706Z,19.25
2022-08-26T04:58:37.362Z,19.30
2022-08-26T05:01:04.870Z,18.23
2022-08-26T05:03:33.885Z,18.52
2022-08-26T05:06:05.596Z,18.77
2022-08-26T05:08:32.948Z,18.15
2022-08-26T05:11:05.710Z,18.33
2022-08-26T05:13:34.093Z,18.73
2022-08-26T05:16:04.253Z,18.60
2022-08-26T05:18:34.352Z,19.17
2022-08-26T05:21:03.550Z,18.80
2022-08-26T05:23:32.035Z,19.67
2022-08-26T05:26:00.417Z,18.60
2022-08-26T05:28:29.735Z,21.67
2022-08-26T05:30:57.317Z,20.67
2022-08-26T05:33:24.774Z,19.88
2022-08-26T05:35:53.723Z,19.33
2022-08-26T05:38:21.939Z,19.00
2022-08-26T05:40:52.702Z,18.88
2022-08-26T05:45:50.379Z,19.88
2022-08-26T05:48:22.824Z,20.20
2022-08-26T05:50:53.528Z,21.10
2022-08-26T05:53:22.005Z,20.15
2022-08-26T05:55:53.022Z,20.42
2022-08-26T05:58:21.966Z,19.85
2022-08-26T06:00:58.278Z,17.60
2022-08-26T06:03:26.005Z,16.90
2022-08-26T06:05:55.368Z,17.73
2022-08-26T06:08:22.710Z,17.42
2022-08-26T06:11:18.661Z,18.17
2022-08-26T06:13:46.719Z,18.27
2022-08-26T06:16:18.771Z,21.15
2022-08-26T06:18:48.119Z,20.98
2022-08-26T06:21:19.544Z,22.38
2022-08-26T06:26:17.110Z,19.75
2022-08-26T06:28:45.587Z,19.65
2022-08-26T06:31:14.200Z,21.00
2022-08-26T06:33:41.803Z,20.83
2022-08-26T06:36:09.225Z,19.30
2022-08-26T06:38:38.159Z,19.42
2022-08-26T06:41:08.740Z,20.15
2022-08-26T06:43:36.114Z,19.95
2022-08-26T06:46:06.038Z,20.52
2022-08-26T06:48:34.976Z,20.10
2022-08-26T06:51:04.744Z,19.92
2022-08-26T06:53:32.314Z,18.27
2022-08-26T06:56:03.513Z,18.00
2022-08-26T06:58:30.860Z,20.17
2022-08-26T07:01:03.738Z,18.00
2022-08-26T07:03:39.759Z,19.02
2022-08-26T07:06:08.378Z,19.92
2022-08-26T07:08:36.041Z,18.77
2022-08-26T07:11:06.507Z,18.40
2022-08-26T07:13:36.303Z,19.17
2022-08-26T07:16:04.698Z,17.83
2022-08-26T07:18:35.118Z,19.85
2022-08-26T07:21:06.307Z,22.00
2022-08-26T07:23:34.730Z,21.92
2022-08-26T07:26:07.479Z,23.02
2022-08-26T07:28:35.478Z,23.52
2022-08-26T07:31:05.085Z,21.67
2022-08-26T07:33:38.329Z,23.90
2022-08-26T07:36:08.209Z,20.95
2022-08-26T07:38:36.681Z,24.58
2022-08-26T07:41:06.651Z,25.30
2022-08-26T07:43:36.495Z,22.25
2022-08-26T07:46:07.891Z,23.60
2022-08-26T07:48:39.773Z,26.33
2022-08-26T07:51:14.973Z,24.65
2022-08-26T07:53:42.578Z,25.20
2022-08-26T07:56:11.316Z,25.73
2022-08-26T07:58:39.060Z,24.38
2022-08-26T08:01:06.616Z,23.48
2022-08-26T08:03:35.174Z,22.60
2022-08-26T08:06:02.754Z,20.80
2022-08-26T08:08:30.913Z,20.58
2022-08-26T08:10:58.958Z,20.90
2022-08-26T08:13:29.081Z,21.52
2022-08-26T08:15:56.625Z,21.83
2022-08-26T08:18:23.855Z,21.73
2022-08-26T08:21:04.840Z,24.27
2022-08-26T08:23:38.797Z,24.40
2022-08-26T08:26:09.093Z,27.73
2022-08-26T08:28:38.259Z,27.02
2022-08-26T08:31:05.991Z,24.67
2022-08-26T08:33:38.637Z,25.25
2022-08-26T08:36:13.424Z,24.58
2022-08-26T08:38:47.873Z,25.63
2022-08-26T08:41:35.938Z,23.05
2022-08-26T08:44:13.459Z,24.02
2022-08-26T08:46:42.955Z,19.90
2022-08-26T08:49:17.291Z,19.08
2022-08-26T08:51:54.847Z,17.90
2022-08-26T08:54:29.493Z,18.67
2022-08-26T08:57:08.348Z,18.15
2022-08-26T08:59:54.168Z,18.05
2022-08-26T09:02:37.505Z,16.58
2022-08-26T09:05:20.399Z,16.25
2022-08-26T09:07:58.767Z,16.10
2022-08-26T09:10:43.980Z,17.42
2022-08-26T09:13:25.394Z,16.48
2022-08-26T09:19:00.149Z,15.43
2022-08-26T09:21:28.900Z,14.38
2022-08-26T09:23:56.912Z,15.27
2022-08-26T09:26:29.657Z,13.65
2022-08-26T09:29:01.083Z,12.88
2022-08-26T09:31:31.106Z,12.60
2022-08-26T09:34:12.989Z,13.20
2022-08-26T09:36:47.427Z,12.85
2022-08-26T09:39:32.590Z,12.38
2022-08-26T09:42:07.660Z,11.73
2022-08-26T09:44:53.222Z,13.02
2022-08-26T09:47:23.544Z,10.90
2022-08-26T09:50:01.848Z,11.13
2022-08-26T09:52:30.345Z,10.77
2022-08-26T09:55:02.138Z,10.98
2022-08-26T09:57:33.840Z,9.80
2022-08-26T10:00:02.496Z,9.25
2022-08-26T10:02:39.027Z,8.95
2022-08-26T10:05:15.329Z,9.70
2022-08-26T10:07:46.582Z,8.57
2022-08-26T10:10:20.173Z,9.57
2022-08-26T10:12:59.163Z,9.57
2022-08-26T10:15:28.352Z,7.82
2022-08-26T10:18:04.560Z,7.43
2022-08-26T10:20:37.856Z,7.72
2022-08-26T10:23:10.980Z,4.88
2022-08-26T10:25:48.933Z,5.57
2022-08-26T10:28:22.906Z,5.90
2022-08-26T10:30:55.493Z,4.78
2022-08-26T10:33:24.195Z,4.95
2022-08-26T10:35:56.353Z,5.00
2022-08-26T10:38:28.692Z,5.10
2022-08-26T10:41:10.350Z,4.43
2022-08-26T10:43:45.442Z,4.72
2022-08-26T10:46:16.763Z,4.35
2022-08-26T10:48:48.378Z,5.07
2022-08-26T10:51:23.915Z,4.97
2022-08-26T10:53:57.258Z,4.90
2022-08-26T10:56:39.935Z,4.65
2022-08-26T10:59:15.030Z,4.43
2022-08-26T11:01:51.038Z,4.45
2022-08-26T11:04:44.428Z,4.47
2022-08-26T11:07:35.482Z,4.80
2022-08-26T11:10:06.599Z,4.85
2022-08-26T11:12:54.598Z,5.22
2022-08-26T11:16:07.645Z,5.43
2022-08-26T11:18:44.339Z,4.45
2022-08-26T11:21:42.176Z,4.43
2022-08-26T11:24:46.016Z,4.00
2022-08-26T11:28:01.104Z,4.40
2022-08-26T11:30:55.461Z,4.18
2022-08-26T11:33:55.857Z,4.03
2022-08-26T11:36:41.817Z,4.13
2022-08-26T11:39:20.816Z,4.20
2022-08-26T11:41:52.667Z,3.80
2022-08-26T11:44:22.672Z,4.07
2022-08-26T11:46:55.686Z,4.53
2022-08-26T11:49:23.641Z,4.38
2022-08-26T11:51:51.513Z,4.85
2022-08-26T11:54:29.249Z,5.00
2022-08-26T11:57:11.673Z,5.30
2022-08-26T11:59:41.435Z,4.65
2022-08-26T12:02:17.736Z,4.25
2022-08-26T12:04:48.855Z,4.28
2022-08-26T12:07:24.124Z,4.00
2022-08-26T12:09:56.375Z,4.32
2022-08-26T12:12:31.750Z,4.38
2022-08-26T12:15:22.927Z,4.15
2022-08-26T12:18:09.450Z,4.45
2022-08-26T12:20:39.850Z,4.35
2022-08-26T12:23:07.530Z,4.15
2022-08-26T12:25:36.363Z,4.18
2022-08-26T12:28:06.501Z,3.90
2022-08-26T12:30:33.863Z,4.20
2022-08-26T12:33:22.950Z,3.90
2022-08-26T12:35:56.631Z,4.88
2022-08-26T12:38:25.823Z,4.75
2022-08-26T12:40:55.997Z,4.10
2022-08-26T12:43:42.418Z,3.90
2022-08-26T12:46:13.119Z,4.43
2022-08-26T12:48:43.027Z,3.83
2022-08-26T12:51:21.022Z,4.15
2022-08-26T12:53:48.570Z,3.70
2022-08-26T12:56:27.569Z,3.58
2022-08-26T12:59:04.273Z,4.45
2022-08-26T13:01:43.446Z,4.05
2022-08-26T13:04:34.074Z,4.15
2022-08-26T13:07:19.890Z,4.20
2022-08-26T13:09:47.973Z,4.10
2022-08-26T13:12:26.898Z,4.18
2022-08-26T13:14:54.169Z,4.30
2022-08-26T13:17:21.951Z,4.50
2022-08-26T13:19:49.329Z,4.63
2022-08-26T13:22:20.283Z,4.25
2022-08-26T13:24:47.960Z,4.95
2022-08-26T13:27:15.813Z,4.20
2022-08-26T13:29:44.787Z,4.38
2022-08-26T13:32:16.672Z,4.28
2022-08-26T13:34:50.631Z,3.85
2022-08-26T13:37:20.877Z,4.20
2022-08-26T13:39:48.684Z,3.92
2022-08-26T13:42:16.008Z,4.10
2022-08-26T13:44:45.111Z,4.55
2022-08-26T13:47:12.553Z,4.00
2022-08-26T13:49:40.063Z,4.00
2022-08-26T13:52:07.773Z,4.22
2022-08-26T13:54:35.046Z,4.80
2022-08-26T13:57:02.444Z,3.85
2022-08-26T13:59:30.403Z,4.03
2022-08-26T14:01:59.168Z,3.92
2022-08-26T14:04:27.093Z,3.92
2022-08-26T14:06:55.310Z,4.40
2022-08-26T14:09:23.028Z,3.90
2022-08-26T14:11:54.219Z,3.60
2022-08-26T14:14:22.797Z,4.10
2022-08-26T14:16:59.508Z,4.18
2022-08-26T14:19:32.069Z,4.30
2022-08-26T14:22:01.191Z,4.25
2022-08-26T14:24:29.908Z,3.65
2022-08-26T14:26:57.361Z,4.30
2022-08-26T14:29:24.768Z,3.65
2022-08-26T14:31:52.637Z,4.15
2022-08-26T14:34:20.155Z,3.60
2022-08-26T14:36:49.029Z,3.35
2022-08-26T14:39:17.042Z,3.58
2022-08-26T14:41:53.719Z,3.78
2022-08-26T14:44:27.654Z,3.55
2022-08-26T14:46:55.945Z,3.80
2022-08-26T14:49:24.919Z,3.80
2022-08-26T14:51:58.533Z,3.95
2022-08-26T14:54:31.038Z,3.58
2022-08-26T14:57:02.088Z,3.75
2022-08-26T14:59:33.065Z,3.85
2022-08-26T15:02:01.059Z,3.53
2022-08-26T15:04:29.224Z,3.53
2022-08-26T15:06:59.831Z,4.20
2022-08-26T15:09:28.083Z,3.72
2022-08-26T15:11:55.533Z,3.72
2022-08-26T15:14:23.799Z,4.30
2022-08-26T15:16:55.020Z,3.70
2022-08-26T15:19:23.826Z,3.75
2022-08-26T15:21:52.283Z,3.70
2022-08-26T15:24:23.850Z,3.67
2022-08-26T15:26:53.095Z,3.97
2022-08-26T15:29:20.888Z,2.83
2022-08-26T15:31:48.488Z,3.30
2022-08-26T15:34:17.332Z,2.95
2022-08-26T15:36:45.999Z,3.28
2022-08-26T15:39:17.014Z,3.40
2022-08-26T15:41:46.895Z,3.00
2022-08-26T15:44:14.610Z,2.92
2022-08-26T15:46:42.739Z,3.25
2022-08-26T15:49:17.761Z,3.08
2022-08-26T15:51:48.582Z,3.58
2022-08-26T15:54:17.926Z,3.13
2022-08-26T15:56:47.507Z,3.25
2022-08-26T15:59:15.878Z,3.40
2022-08-26T16:01:44.346Z,3.10
2022-08-26T16:04:12.063Z,2.85
2022-08-26T16:06:41.428Z,3.35
2022-08-26T16:09:11.109Z,2.97
2022-08-26T16:11:42.179Z,3.42
2022-08-26T16:14:11.273Z,3.28
2022-08-26T16:16:39.722Z,2.83
2022-08-26T16:19:07.822Z,3.70
2022-08-26T16:21:35.728Z,3.10
2022-08-26T16:24:04.454Z,3.20
2022-08-26T16:26:35.885Z,3.05
2022-08-26T16:29:06.171Z,2.83
2022-08-26T16:31:35.509Z,3.10
2022-08-26T16:34:03.078Z,2.78
2022-08-26T16:36:30.772Z,2.85
2022-08-26T16:38:58.203Z,2.60
2022-08-26T16:41:27.046Z,3.00
2022-08-26T16:43:55.724Z,2.53
2022-08-26T16:46:24.577Z,2.90
2022-08-26T16:48:54.515Z,2.90
2022-08-26T16:51:23.629Z,2.85
2022-08-26T16:53:51.890Z,3.17
2022-08-26T16:56:22.840Z,3.63
2022-08-26T16:58:50.574Z,4.40
2022-08-26T17:01:18.648Z,4.70
2022-08-26T17:03:46.410Z,3.50
2022-08-26T17:06:15.216Z,3.30
2022-08-26T17:08:43.524Z,3.53
2022-08-26T17:11:11.260Z,3.85
2022-08-26T17:13:38.879Z,3.75
2022-08-26T17:16:08.941Z,3.67
2022-08-26T17:18:36.928Z,3.50
2022-08-26T17:21:06.700Z,4.93
2022-08-26T17:23:36.150Z,3.45
2022-08-26T17:26:04.112Z,3.05
2022-08-26T17:28:31.457Z,3.40
2022-08-26T17:30:59.250Z,3.25
2022-08-26T17:33:27.694Z,3.22
2022-08-26T17:35:55.492Z,3.40
2022-08-26T17:38:23.959Z,3.47
2022-08-26T17:40:53.164Z,3.05
2022-08-26T17:43:20.514Z,2.90
2022-08-26T17:45:50.785Z,4.00
2022-08-26T17:48:18.439Z,3.25
2022-08-26T17:50:49.497Z,2.97
2022-08-26T17:53:18.883Z,3.42
2022-08-26T17:55:46.837Z,3.35
2022-08-26T17:58:16.099Z,3.70
2022-08-26T18:00:44.628Z,3.80
2022-08-26T18:03:12.218Z,3.53
2022-08-26T18:05:39.887Z,4.95
2022-08-26T18:08:07.887Z,3.90
2022-08-26T18:10:35.493Z,3.65
2022-08-26T18:13:02.921Z,4.50
2022-08-26T18:15:31.998Z,3.50
2022-08-26T18:17:59.488Z,3.17
2022-08-26T18:20:26.935Z,3.15
2022-08-26T18:22:54.824Z,2.92
2022-08-26T18:25:22.418Z,3.22
2022-08-26T18:27:49.640Z,3.45
2022-08-26T18:30:20.308Z,3.50
2022-08-26T18:32:49.848Z,3.53
2022-08-26T18:35:18.735Z,3.72
2022-08-26T18:37:46.164Z,3.50
2022-08-26T18:40:14.523Z,3.20
2022-08-26T18:42:42.463Z,3.70
2022-08-26T18:45:10.838Z,4.43
2022-08-26T18:47:45.349Z,3.30
2022-08-26T18:50:14.505Z,3.45
2022-08-26T18:52:42.592Z,3.67
2022-08-26T18:55:10.268Z,4.68
2022-08-26T18:57:37.685Z,3.95
2022-08-26T19:00:06.615Z,4.00
2022-08-26T19:02:34.479Z,4.20
2022-08-26T19:05:02.237Z,4.00
2022-08-26T19:07:31.342Z,3.80
2022-08-26T19:09:59.149Z,4.10
2022-08-26T19:12:26.976Z,3.50
2022-08-26T19:14:54.408Z,3.47
2022-08-26T19:17:22.656Z,3.17
2022-08-26T19:19:50.142Z,3.65
2022-08-26T19:22:17.705Z,3.78
2022-08-26T19:24:46.828Z,4.03
2022-08-26T19:27:15.058Z,3.60
2022-08-26T19:29:42.597Z,3.63
2022-08-26T19:32:10.474Z,3.10
2022-08-26T19:34:37.787Z,3.80
2022-08-26T19:37:05.269Z,3.70
2022-08-26T19:39:32.908Z,3.80
2022-08-26T19:42:01.749Z,3.70
2022-08-26T19:44:29.003Z,3.50
2022-08-26T19:46:56.623Z,4.28
2022-08-26T19:49:23.902Z,3.33
2022-08-26T19:51:51.084Z,3.20
2022-08-26T19:54:18.654Z,3.45
2022-08-26T19:56:49.246Z,4.53
2022-08-26T19:59:18.684Z,3.90
2022-08-26T20:01:46.435Z,3.88
2022-08-26T20:04:28.027Z,4.75
2022-08-26T20:06:58.789Z,3.90
2022-08-26T20:09:28.297Z,3.25
2022-08-26T20:11:56.975Z,4.10
2022-08-26T20:14:26.693Z,3.60
2022-08-26T20:16:54.299Z,3.45
2022-08-26T20:19:21.892Z,3.70
2022-08-26T20:21:49.848Z,3.53
2022-08-26T20:24:18.779Z,3.78
2022-08-26T20:26:46.580Z,3.90
2022-08-26T20:29:17.358Z,5.55
2022-08-26T20:31:47.140Z,4.10
2022-08-26T20:34:17.493Z,4.28
2022-08-26T20:36:46.613Z,4.40
2022-08-26T20:39:15.174Z,4.63
2022-08-26T20:41:43.096Z,4.00
2022-08-26T20:44:12.841Z,4.03
2022-08-26T20:46:42.831Z,4.35
2022-08-26T20:49:12.098Z,4.60
2022-08-26T20:51:41.411Z,4.82
2022-08-26T20:54:09.255Z,4.95
2022-08-26T20:56:37.448Z,4.80
2022-08-26T20:59:06.855Z,5.35
2022-08-26T21:01:36.243Z,4.43
2022-08-26T21:04:06.007Z,4.97
2022-08-26T21:06:36.377Z,4.60
2022-08-26T21:09:06.269Z,5.30
2022-08-26T21:11:34.491Z,4.70
2022-08-26T21:14:06.714Z,4.55
2022-08-26T21:16:45.478Z,4.50
2022-08-26T21:19:16.135Z,4.85
2022-08-26T21:21:45.192Z,4.65
2022-08-26T21:24:13.256Z,4.13
2022-08-26T21:26:40.845Z,4.57
2022-08-26T21:29:08.364Z,5.18
2022-08-26T21:31:36.802Z,5.65
2022-08-26T21:34:04.303Z,4.47
2022-08-26T21:36:34.769Z,5.75
2022-08-26T21:39:08.041Z,5.70
2022-08-26T21:41:38.346Z,4.90
2022-08-26T21:44:06.047Z,4.78
2022-08-26T21:46:33.612Z,4.88
2022-08-26T21:49:03.133Z,4.18
2022-08-26T21:51:32.776Z,4.43
2022-08-26T21:54:01.458Z,4.32
2022-08-26T21:56:32.663Z,4.40
2022-08-26T21:59:01.068Z,4.85
2022-08-26T22:01:30.687Z,4.03
2022-08-26T22:03:58.374Z,4.43
2022-08-26T22:06:27.896Z,4.88
2022-08-26T22:08:56.066Z,4.78
2022-08-26T22:11:23.854Z,4.47
2022-08-26T22:13:53.537Z,4.43
2022-08-26T22:16:21.122Z,5.18
2022-08-26T22:18:48.483Z,5.35
2022-08-26T22:21:18.481Z,5.53
2022-08-26T22:23:46.556Z,5.15
2022-08-26T22:26:25.491Z,4.30
2022-08-26T22:28:59.055Z,5.25
2022-08-26T22:31:37.505Z,4.60
2022-08-26T22:34:07.988Z,4.35
2022-08-26T22:36:39.831Z,4.78
2022-08-26T22:39:12.917Z,5.88
2022-08-26T22:41:40.450Z,4.60
2022-08-26T22:44:09.529Z,5.07
2022-08-26T22:46:37.747Z,5.50
2022-08-26T22:49:05.491Z,5.50
2022-08-26T22:51:32.814Z,5.93
2022-08-26T22:54:00.731Z,6.13
2022-08-26T22:56:28.042Z,4.75
2022-08-26T22:58:55.405Z,4.75
2022-08-26T23:01:24.491Z,4.80
2022-08-26T23:03:51.930Z,4.30
2022-08-26T23:06:19.444Z,5.82
2022-08-26T23:08:47.145Z,6.13
2022-08-26T23:11:14.838Z,6.38
2022-08-26T23:13:42.466Z,5.50
2022-08-26T23:16:12.024Z,4.45
2022-08-26T23:18:41.756Z,4.93
2022-08-26T23:21:09.678Z,4.97
2022-08-26T23:23:37.949Z,5.43
2022-08-26T23:26:06.738Z,4.93
2022-08-26T23:28:34.767Z,6.70
2022-08-26T23:31:03.084Z,5.68
2022-08-26T23:33:30.545Z,5.88
2022-08-26T23:36:08.132Z,5.38
2022-08-26T23:38:36.889Z,6.25
2022-08-26T23:41:04.724Z,5.97
2022-08-26T23:43:32.081Z,5.57
2022-08-26T23:45:59.804Z,6.57
2022-08-26T23:48:27.150Z,5.47
2022-08-26T23:50:54.539Z,5.63
2022-08-26T23:53:23.756Z,5.00
2022-08-26T23:55:52.450Z,5.55
2022-08-26T23:58:21.338Z,7.22
